Terminal Aerodrome Forecast
Issued by NWS

Home | Current Version | Previous Version | Text Only | Print | Product List | Glossary On
Versions: 1 2 3 4 5 6 7 8 9 10 11
533
FTUS46 KPDT 292320
TAFDLS
TAF
KDLS 292320Z 3000/3024 33006KT P6SM SCT100 OVC200
     FM300700 31010KT P6SM VCSH BKN050 OVC100
     FM301400 28015G25KT P6SM SCT050 BKN150
     FM302000 29020G30KT P6SM FEW050 SCT200=

USA.gov is the U.S. government's official web portal to all federal, state and local government web resources and services.